Map

Track Data

SID SEASON NUMBER BASIN SUBBASIN NAME ISO_TIME NATURE LAT LON WMO_WIND WMO_PRES WMO_AGENCY TRACK_TYPE DIST2LAND LANDFALL IFLAG USA_AGENCY USA_ATCF_ID USA_LAT USA_LON USA_RECORD USA_STATUS USA_WIND USA_PRES USA_SSHS USA_R34_NE USA_R34_SE USA_R34_SW USA_R34_NW USA_R50_NE USA_R50_SE USA_R50_SW USA_R50_NW USA_R64_NE USA_R64_SE USA_R64_SW USA_R64_NW USA_POCI USA_ROCI USA_RMW USA_EYE TOKYO_LAT TOKYO_LON TOKYO_GRADE TOKYO_WIND TOKYO_PRES TOKYO_R50_DIR TOKYO_R50_LONG TOKYO_R50_SHORT TOKYO_R30_DIR TOKYO_R30_LONG TOKYO_R30_SHORT TOKYO_LAND CMA_LAT CMA_LON CMA_CAT CMA_WIND CMA_PRES HKO_LAT HKO_LON HKO_CAT HKO_WIND HKO_PRES NEWDELHI_LAT NEWDELHI_LON NEWDELHI_GRADE NEWDELHI_WIND NEWDELHI_PRES NEWDELHI_CI NEWDELHI_DP NEWDELHI_POCI REUNION_LAT REUNION_LON REUNION_TYPE REUNION_WIND REUNION_PRES REUNION_TNUM REUNION_CI REUNION_RMW REUNION_R34_NE REUNION_R34_SE REUNION_R34_SW REUNION_R34_NW REUNION_R50_NE REUNION_R50_SE REUNION_R50_SW REUNION_R50_NW REUNION_R64_NE REUNION_R64_SE REUNION_R64_SW REUNION_R64_NW BOM_LAT BOM_LON BOM_TYPE BOM_WIND BOM_PRES BOM_TNUM BOM_CI BOM_RMW BOM_R34_NE BOM_R34_SE BOM_R34_SW BOM_R34_NW BOM_R50_NE BOM_R50_SE BOM_R50_SW BOM_R50_NW BOM_R64_NE BOM_R64_SE BOM_R64_SW BOM_R64_NW BOM_ROCI BOM_POCI BOM_EYE BOM_POS_METHOD BOM_PRES_METHOD NADI_LAT NADI_LON NADI_CAT NADI_WIND NADI_PRES WELLINGTON_LAT WELLINGTON_LON WELLINGTON_WIND WELLINGTON_PRES DS824_LAT DS824_LON DS824_STAGE DS824_WIND DS824_PRES TD9636_LAT TD9636_LON TD9636_STAGE TD9636_WIND TD9636_PRES TD9635_LAT TD9635_LON TD9635_WIND TD9635_PRES TD9635_ROCI NEUMANN_LAT NEUMANN_LON NEUMANN_CLASS NEUMANN_WIND NEUMANN_PRES MLC_LAT MLC_LON MLC_CLASS MLC_WIND MLC_PRES USA_GUST BOM_GUST BOM_GUST_PER REUNION_GUST REUNION_GUST_PER USA_SEAHGT USA_SEARAD_NE USA_SEARAD_SE USA_SEARAD_SW USA_SEARAD_NW STORM_SPEED STORM_DIR
1990226N19088 1990 66 NI BB NOT_NAMED 1990-08-14 06:00:00 NR 19.0000 88.0000 16 996 newdelhi main 199 184 ____O_________ -1 19.0000 88.0000 16 996 0.00000 4 270
1990226N19088 1990 66 NI BB NOT_NAMED 1990-08-14 09:00:00 NR 18.9998 87.8125 main 184 160 ____P_________ -1 18.9998 87.8125 21 995 5 270
1990226N19088 1990 66 NI BB NOT_NAMED 1990-08-14 12:00:00 NR 19.0000 87.5000 27 994 newdelhi main 160 128 ____O_________ -1 19.0000 87.5000 27 994 0.00000 8 270
1990226N19088 1990 66 NI BB NOT_NAMED 1990-08-14 15:00:00 NR 19.0004 87.0000 main 128 109 ____P_________ -1 19.0004 87.0000 27 994 9 270
1990226N19088 1990 66 NI BB NOT_NAMED 1990-08-14 18:00:00 NR 19.0000 86.5000 27 994 newdelhi main 109 102 ____O_________ -1 19.0000 86.5000 27 994 0.00000 7 267
1990226N19088 1990 66 NI BB NOT_NAMED 1990-08-14 21:00:00 NR 18.9621 86.2497 main 98 91 ____P_________ -1 18.9621 86.2497 27 993 5 270
1990226N19088 1990 66 NI BB NOT_NAMED 1990-08-15 00:00:00 NR 19.0000 86.0000 27 993 newdelhi main 91 49 ____O_________ -1 19.0000 86.0000 27 993 0.00000 7 288
1990226N19088 1990 66 NI BB NOT_NAMED 1990-08-15 03:00:00 NR 19.1748 85.5745 main 49 0 ____P_________ -1 19.1748 85.5745 27 994 11 298
1990226N19088 1990 66 NI BB NOT_NAMED 1990-08-15 06:00:00 NR 19.5000 85.0000 27 995 newdelhi main 0 0 ____O_________ -1 19.5000 85.0000 27 995 0.00000 15 302
1990226N19088 1990 66 NI BB NOT_NAMED 1990-08-15 09:00:00 NR 19.9630 84.2506 main 0 0 ____P_________ -1 19.9630 84.2506 27 995 17 305
1990226N19088 1990 66 NI BB NOT_NAMED 1990-08-15 12:00:00 NR 20.5000 83.5000 27 995 newdelhi main 0 0 ____O_________ -1 20.5000 83.5000 27 995 0.00000 16 313
1990226N19088 1990 66 NI BB NOT_NAMED 1990-08-15 15:00:00 NR 21.0744 82.9626 main 0 0 ____P_________ -1 21.0744 82.9626 27 995 14 317
1990226N19088 1990 66 NI BB NOT_NAMED 1990-08-15 18:00:00 NR 21.5000 82.5000 27 995 newdelhi main 0 0 ____O_________ -1 21.5000 82.5000 27 995 0.00000 10 297
1990226N19088 1990 66 NI BB NOT_NAMED 1990-08-15 21:00:00 NR 21.5373 81.9989 main 0 0 ____P_________ -1 21.5373 81.9989 27 995 9 270
1990226N19088 1990 66 NI BB NOT_NAMED 1990-08-16 00:00:00 NR 21.5000 81.5000 27 995 newdelhi main 0 0 ____O_________ -1 21.5000 81.5000 27 995 0.00000 9 283
1990226N19088 1990 66 NI BB NOT_NAMED 1990-08-16 03:00:00 NR 21.7495 81.0380 main 0 0 ____P_________ -1 21.7495 81.0380 27 995 11 298
1990226N19088 1990 66 NI BB NOT_NAMED 1990-08-16 06:00:00 NR 22.0000 80.5000 27 996 newdelhi main 0 0 ____O_________ -1 22.0000 80.5000 27 996 0.00000 12 282
1990226N19088 1990 66 NI BB NOT_NAMED 1990-08-16 09:00:00 NR 22.0001 79.7864 main 0 0 ____P_________ -1 22.0001 79.7864 27 995 14 270
1990226N19088 1990 66 NI BB NOT_NAMED 1990-08-16 12:00:00 NR 22.0000 79.0000 27 995 newdelhi main 0 0 ____O_________ -1 22.0000 79.0000 27 995 0.00000 15 278
1990226N19088 1990 66 NI BB NOT_NAMED 1990-08-16 15:00:00 NR 22.2132 78.1385 main 0 0 ____P_________ -1 22.2132 78.1385 27 996 15 290
1990226N19088 1990 66 NI AS NOT_NAMED 1990-08-16 18:00:00 NR 22.5000 77.5000 27 997 newdelhi main 0 0 ____O_________ -1 22.5000 77.5000 27 997 0.00000 9 311
1990226N19088 1990 66 NI AS NOT_NAMED 1990-08-16 21:00:00 NR 22.7869 77.4243 main 0 0 ____P_________ -1 22.7869 77.4243 27 997 5 2
1990226N19088 1990 66 NI AS NOT_NAMED 1990-08-17 00:00:00 NR 23.0000 77.5000 27 997 newdelhi main 0 0 ____O_________ -1 23.0000 77.5000 27 997 0.00000 3 344
1990226N19088 1990 66 NI AS NOT_NAMED 1990-08-17 03:00:00 NR 23.0504 77.3377 main 0 0 ____P_________ -1 23.0504 77.3377 21 997 5 270
1990226N19088 1990 66 NI AS NOT_NAMED 1990-08-17 06:00:00 NR 23.0000 77.0000 16 998 newdelhi main 0 ____O_________ -1 23.0000 77.0000 16 998 0.00000 6 261

About IBTrACS Database

This database is a web-friendly format of International Best Track Archive for Climate Stewardship (IBTrACS), a global best track data archive curated by NOAA dating back to 1842.

Updated: 2021-12-06